createdAt,value
2024-02-13T00:00:40.143Z,100697.38
2024-02-13T00:03:07.033Z,100699.59
2024-02-13T00:05:34.422Z,100704.84
2024-02-13T00:08:01.936Z,100704.38
2024-02-13T00:10:29.564Z,100707.56
2024-02-13T00:12:56.111Z,100711.28
2024-02-13T00:15:22.744Z,100710.78
2024-02-13T00:17:49.526Z,100715.06
2024-02-13T00:20:16.368Z,100709.16
2024-02-13T00:22:42.967Z,100710.59
2024-02-13T00:25:10.383Z,100723.66
2024-02-13T00:27:37.616Z,100723.31
2024-02-13T00:30:04.601Z,100719.31
2024-02-13T00:32:38.634Z,100719.84
2024-02-13T00:35:09.599Z,100720.63
2024-02-13T00:37:37.663Z,100726.44
2024-02-13T00:40:11.152Z,100739.81
2024-02-13T00:42:37.978Z,100737.72
2024-02-13T00:45:08.491Z,100740.31
2024-02-13T00:47:35.454Z,100741.97
2024-02-13T00:50:03.189Z,100745.63
2024-02-13T00:52:29.810Z,100744.44
2024-02-13T00:54:58.054Z,100745.81
2024-02-13T00:57:25.501Z,100752.44
2024-02-13T00:59:52.443Z,100757.81
2024-02-13T01:02:19.128Z,100754.56
2024-02-13T01:04:45.868Z,100754.66
2024-02-13T01:07:12.426Z,100748.72
2024-02-13T01:09:38.909Z,100753.88
2024-02-13T01:12:05.539Z,100757.22
2024-02-13T01:14:32.417Z,100757.75
2024-02-13T01:16:59.079Z,100765.56
2024-02-13T01:19:25.678Z,100769.31
2024-02-13T01:21:52.200Z,100773.28
2024-02-13T01:24:18.678Z,100772.19
2024-02-13T01:26:45.851Z,100773.16
2024-02-13T01:29:15.703Z,100784.91
2024-02-13T01:31:42.802Z,100788.72
2024-02-13T01:34:09.454Z,100782.56
2024-02-13T01:36:38.855Z,100795.66
2024-02-13T01:39:05.704Z,100803.59
2024-02-13T01:41:32.263Z,100796.59
2024-02-13T01:43:58.922Z,100796.94
2024-02-13T01:46:27.739Z,100803.13
2024-02-13T01:49:00.354Z,100797.91
2024-02-13T01:51:35.236Z,100800.38
2024-02-13T01:54:04.656Z,100798.94
2024-02-13T01:56:34.654Z,100796.19
2024-02-13T01:59:02.926Z,100798.50
2024-02-13T02:01:30.785Z,100809.25
2024-02-13T02:04:01.296Z,100811.50
2024-02-13T02:06:27.826Z,100804.59
2024-02-13T02:08:54.715Z,100807.66
2024-02-13T02:11:21.429Z,100810.03
2024-02-13T02:13:48.427Z,100816.63
2024-02-13T02:16:14.915Z,100810.09
2024-02-13T02:18:42.245Z,100807.31
2024-02-13T02:21:09.159Z,100805.66
2024-02-13T02:23:35.944Z,100814.19
2024-02-13T02:26:04.226Z,100822.44
2024-02-13T02:28:31.075Z,100824.88
2024-02-13T02:30:57.540Z,100826.59
2024-02-13T02:33:24.144Z,100836.50
2024-02-13T02:35:50.873Z,100821.69
2024-02-13T02:38:17.845Z,100838.94
2024-02-13T02:40:46.963Z,100832.84
2024-02-13T02:43:13.492Z,100828.88
2024-02-13T02:45:40.136Z,100831.91
2024-02-13T02:48:07.474Z,100831.00
2024-02-13T02:50:35.835Z,100836.13
2024-02-13T02:53:02.437Z,100835.22
2024-02-13T02:55:30.368Z,100836.75
2024-02-13T02:57:57.804Z,100843.66
2024-02-13T03:00:24.351Z,100831.09
2024-02-13T03:02:50.941Z,100835.00
2024-02-13T03:05:17.754Z,100835.50
2024-02-13T03:07:46.794Z,100843.44
2024-02-13T03:10:13.433Z,100852.44
2024-02-13T03:12:40.163Z,100844.59
2024-02-13T03:15:07.291Z,100849.59
2024-02-13T03:17:34.097Z,100849.47
2024-02-13T03:20:02.096Z,100842.84
2024-02-13T03:22:29.272Z,100852.97
2024-02-13T03:24:56.022Z,100855.00
2024-02-13T03:27:22.534Z,100862.03
2024-02-13T03:29:49.121Z,100863.00
2024-02-13T03:32:15.759Z,100866.28
2024-02-13T03:34:42.255Z,100860.31
2024-02-13T03:37:09.770Z,100865.09
2024-02-13T03:39:36.937Z,100863.53
2024-02-13T03:42:03.712Z,100865.25
2024-02-13T03:44:30.323Z,100867.66
2024-02-13T03:46:56.864Z,100869.41
2024-02-13T03:49:23.518Z,100871.00
2024-02-13T03:51:50.441Z,100872.09
2024-02-13T03:54:16.952Z,100872.44
2024-02-13T03:56:43.693Z,100875.50
2024-02-13T03:59:12.067Z,100866.53
2024-02-13T04:01:40.106Z,100878.00
2024-02-13T04:04:06.691Z,100872.41
2024-02-13T04:06:34.466Z,100882.47
2024-02-13T04:09:04.554Z,100881.69
2024-02-13T04:11:31.619Z,100876.59
2024-02-13T04:13:58.686Z,100883.47
2024-02-13T04:16:25.296Z,100888.66
2024-02-13T04:18:54.432Z,100884.06
2024-02-13T04:21:21.290Z,100900.31
2024-02-13T04:23:49.701Z,100883.94
2024-02-13T04:26:25.982Z,100885.81
2024-02-13T04:29:02.615Z,100888.28
2024-02-13T04:31:29.099Z,100885.59
2024-02-13T04:33:55.756Z,100892.16
2024-02-13T04:36:22.360Z,100894.31
2024-02-13T04:38:49.016Z,100892.59
2024-02-13T04:41:17.796Z,100893.00
2024-02-13T04:43:44.801Z,100884.25
2024-02-13T04:46:11.333Z,100899.47
2024-02-13T04:48:38.565Z,100897.81
2024-02-13T04:51:08.711Z,100898.81
2024-02-13T04:53:35.347Z,100896.28
2024-02-13T04:56:01.926Z,100887.66
2024-02-13T04:58:32.921Z,100897.72
2024-02-13T05:01:10.701Z,100902.13
2024-02-13T05:03:49.450Z,100896.72
2024-02-13T05:06:35.400Z,100902.34
2024-02-13T05:09:01.949Z,100915.00
2024-02-13T05:11:28.555Z,100914.50
2024-02-13T05:13:57.556Z,100910.47
2024-02-13T05:16:26.860Z,100916.44
2024-02-13T05:18:53.819Z,100917.72
2024-02-13T05:21:21.965Z,100912.06
2024-02-13T05:23:49.205Z,100921.41
2024-02-13T05:26:16.397Z,100917.38
2024-02-13T05:28:43.674Z,100921.16
2024-02-13T05:31:10.243Z,100924.47
2024-02-13T05:33:37.543Z,100927.38
2024-02-13T05:36:05.300Z,100926.16
2024-02-13T05:38:36.691Z,100927.25
2024-02-13T05:41:03.674Z,100930.41
2024-02-13T05:43:30.163Z,100926.22
2024-02-13T05:45:57.977Z,100933.63
2024-02-13T05:48:25.948Z,100940.91
2024-02-13T05:50:52.604Z,100933.44
2024-02-13T05:53:19.333Z,100919.19
2024-02-13T05:55:45.922Z,100935.97
2024-02-13T05:58:12.645Z,100938.88
2024-02-13T06:00:39.201Z,100944.84
2024-02-13T06:03:07.926Z,100948.56
2024-02-13T06:05:35.082Z,100944.03
2024-02-13T06:08:01.761Z,100945.69
2024-02-13T06:10:28.322Z,100948.59
2024-02-13T06:12:57.898Z,100942.81
2024-02-13T06:15:24.618Z,100953.53
2024-02-13T06:17:51.268Z,100957.84
2024-02-13T06:20:19.285Z,100957.66
2024-02-13T06:22:45.983Z,100953.53
2024-02-13T06:25:13.885Z,100952.69
2024-02-13T06:27:40.787Z,100956.81
2024-02-13T06:30:08.339Z,100954.34
2024-02-13T06:32:35.343Z,100952.28
2024-02-13T06:35:01.914Z,100955.56
2024-02-13T06:37:28.423Z,100946.03
2024-02-13T06:39:54.994Z,100946.44
2024-02-13T06:42:21.514Z,100956.41
2024-02-13T06:44:48.714Z,100964.66
2024-02-13T06:47:15.507Z,100963.63
2024-02-13T06:49:42.161Z,100963.81
2024-02-13T06:52:10.125Z,100959.69
2024-02-13T06:54:36.605Z,100968.16
2024-02-13T06:57:03.190Z,100970.22
2024-02-13T06:59:31.057Z,100966.91
2024-02-13T07:01:57.807Z,100973.31
2024-02-13T07:04:24.552Z,100972.47
2024-02-13T07:07:07.928Z,100981.38
2024-02-13T07:09:41.048Z,100986.47
2024-02-13T07:12:07.671Z,100984.03
2024-02-13T07:14:34.326Z,100982.94
2024-02-13T07:17:00.898Z,100992.44
2024-02-13T07:19:27.647Z,100993.94
2024-02-13T07:21:54.210Z,101001.16
2024-02-13T07:24:20.764Z,101003.47
2024-02-13T07:26:47.493Z,100998.28
2024-02-13T07:29:14.081Z,101002.63
2024-02-13T07:31:40.623Z,101001.16
2024-02-13T07:34:07.254Z,101003.34
2024-02-13T07:36:33.832Z,101006.97
2024-02-13T07:39:01.546Z,101004.19
2024-02-13T07:41:29.504Z,101010.81
2024-02-13T07:43:56.166Z,101007.13
2024-02-13T07:46:22.719Z,101002.78
2024-02-13T07:48:49.728Z,101013.88
2024-02-13T07:51:17.409Z,101003.78
2024-02-13T07:53:44.056Z,101007.88
2024-02-13T07:56:12.107Z,101016.53
2024-02-13T07:58:39.750Z,101012.03
2024-02-13T08:01:07.072Z,101019.19
2024-02-13T08:03:35.590Z,101029.41
2024-02-13T08:06:02.600Z,101013.56
2024-02-13T08:08:29.884Z,101021.09
2024-02-13T08:10:57.165Z,101023.19
2024-02-13T08:13:23.676Z,101023.16
2024-02-13T08:15:50.160Z,101031.66
2024-02-13T08:18:19.198Z,101031.22
2024-02-13T08:20:46.289Z,101037.22
2024-02-13T08:23:13.142Z,101037.63
2024-02-13T08:25:39.869Z,101029.34
2024-02-13T08:28:07.092Z,101035.56
2024-02-13T08:30:33.625Z,101030.19
2024-02-13T08:33:00.484Z,101023.59
2024-02-13T08:35:27.310Z,101037.47
2024-02-13T08:37:56.065Z,101026.47
2024-02-13T08:40:24.092Z,101031.34
2024-02-13T08:42:50.652Z,101029.47
2024-02-13T08:45:17.179Z,101034.31
2024-02-13T08:47:43.813Z,101037.72
2024-02-13T08:50:13.998Z,101037.25
2024-02-13T08:52:40.657Z,101041.41
2024-02-13T08:55:08.574Z,101029.09
2024-02-13T08:57:35.126Z,101039.25
2024-02-13T09:00:01.926Z,101057.13
2024-02-13T09:02:28.444Z,101048.97
2024-02-13T09:04:55.068Z,101048.97
2024-02-13T09:07:21.602Z,101048.13
2024-02-13T09:09:48.444Z,101049.72
2024-02-13T09:12:14.925Z,101051.84
2024-02-13T09:14:41.440Z,101062.06
2024-02-13T09:17:09.188Z,101064.19
2024-02-13T09:19:35.687Z,101059.56
2024-02-13T09:22:02.156Z,101063.81
2024-02-13T09:24:28.760Z,101060.09
2024-02-13T09:26:55.460Z,101077.63
2024-02-13T09:29:22.041Z,101075.66
2024-02-13T09:31:48.695Z,101082.66
2024-02-13T09:34:15.496Z,101067.66
2024-02-13T09:36:42.564Z,101068.41
2024-02-13T09:39:10.164Z,101061.66
2024-02-13T09:41:38.039Z,101072.13
2024-02-13T09:44:05.053Z,101069.19
2024-02-13T09:46:32.720Z,101058.53
2024-02-13T09:49:13.718Z,101070.34
2024-02-13T09:51:41.806Z,101075.56
2024-02-13T09:54:09.995Z,101074.28
2024-02-13T09:56:39.679Z,101070.06
2024-02-13T09:59:08.331Z,101071.44
2024-02-13T10:01:36.274Z,101070.97
2024-02-13T10:04:04.899Z,101084.19
2024-02-13T10:06:31.592Z,101085.66
2024-02-13T10:09:00.176Z,101087.66
2024-02-13T10:11:32.033Z,101079.41
2024-02-13T10:13:58.608Z,101083.81
2024-02-13T10:16:28.732Z,101078.41
2024-02-13T10:18:58.637Z,101094.31
2024-02-13T10:21:26.976Z,101093.41
2024-02-13T10:24:14.810Z,101097.22
2024-02-13T10:26:41.698Z,101104.25
2024-02-13T10:29:08.938Z,101097.47
2024-02-13T10:31:36.599Z,101117.75
2024-02-13T10:34:08.447Z,101111.53
2024-02-13T10:36:42.482Z,101118.56
2024-02-13T10:39:13.207Z,101112.44
2024-02-13T10:41:41.872Z,101108.13
2024-02-13T10:44:13.073Z,101106.91
2024-02-13T10:46:40.750Z,101113.81
2024-02-13T10:49:21.611Z,101118.25
2024-02-13T10:51:50.279Z,101111.44
2024-02-13T10:54:17.172Z,101110.13
2024-02-13T10:56:45.464Z,101119.41
2024-02-13T10:59:13.174Z,101120.28
2024-02-13T11:01:42.699Z,101121.34
2024-02-13T11:04:10.763Z,101124.25
2024-02-13T11:06:37.553Z,101124.84
2024-02-13T11:09:13.325Z,101123.03
2024-02-13T11:14:22.889Z,101124.50
2024-02-13T11:17:00.308Z,101119.41
2024-02-13T11:19:41.267Z,101121.03
2024-02-13T11:22:10.415Z,101124.38
2024-02-13T11:24:50.728Z,101122.41
2024-02-13T11:27:26.861Z,101128.66
2024-02-13T11:30:01.031Z,101128.69
2024-02-13T11:32:33.323Z,101135.63
2024-02-13T11:35:00.935Z,101128.53
2024-02-13T11:37:31.554Z,101133.19
2024-02-13T11:39:58.606Z,101141.16
2024-02-13T11:42:33.721Z,101136.19
2024-02-13T11:45:09.603Z,101132.16
2024-02-13T11:47:36.496Z,101148.50
2024-02-13T11:50:08.393Z,101146.28
2024-02-13T11:52:35.773Z,101150.47
2024-02-13T11:55:02.470Z,101144.38
2024-02-13T11:57:29.341Z,101151.75
2024-02-13T12:00:06.489Z,101148.41
2024-02-13T12:02:34.640Z,101147.84
2024-02-13T12:05:01.492Z,101150.31
2024-02-13T12:07:29.109Z,101151.84
2024-02-13T12:09:56.084Z,101151.78
2024-02-13T12:12:22.911Z,101152.13
2024-02-13T12:14:53.789Z,101152.91
2024-02-13T12:17:22.094Z,101155.97
2024-02-13T12:19:49.159Z,101152.59
2024-02-13T12:22:17.884Z,101158.50
2024-02-13T12:24:48.691Z,101161.03
2024-02-13T12:27:17.050Z,101147.81
2024-02-13T12:29:44.578Z,101157.41
2024-02-13T12:32:18.939Z,101162.41
2024-02-13T12:34:49.934Z,101159.22
2024-02-13T12:37:21.466Z,101155.41
2024-02-13T12:39:48.800Z,101157.13
2024-02-13T12:42:18.626Z,101157.25
2024-02-13T12:44:45.628Z,101159.38
2024-02-13T12:47:14.815Z,101164.41
2024-02-13T12:49:44.593Z,101164.03
2024-02-13T12:52:23.546Z,101162.72
2024-02-13T12:54:51.163Z,101158.22
2024-02-13T12:57:19.653Z,101156.81
2024-02-13T12:59:46.163Z,101164.78
2024-02-13T13:02:14.999Z,101158.63
2024-02-13T13:04:42.178Z,101151.91
2024-02-13T13:07:08.920Z,101154.94
2024-02-13T13:09:37.306Z,101157.75
2024-02-13T13:12:06.834Z,101160.16
2024-02-13T13:14:35.650Z,101174.53
2024-02-13T13:17:02.221Z,101161.59
2024-02-13T13:19:30.570Z,101167.38
2024-02-13T13:21:57.448Z,101169.38
2024-02-13T13:24:24.273Z,101173.22
2024-02-13T13:26:51.788Z,101172.75
2024-02-13T13:29:18.885Z,101170.09
2024-02-13T13:31:48.714Z,101178.59
2024-02-13T13:34:21.303Z,101171.25
2024-02-13T13:36:48.679Z,101171.34
2024-02-13T13:39:15.254Z,101165.88
2024-02-13T13:41:42.560Z,101163.19
2024-02-13T13:44:14.482Z,101171.47
2024-02-13T13:46:42.196Z,101173.78
2024-02-13T13:49:09.023Z,101164.81
2024-02-13T13:51:35.703Z,101167.56
2024-02-13T13:54:02.450Z,101167.13
2024-02-13T13:56:29.134Z,101169.13
2024-02-13T13:58:55.633Z,101178.69
2024-02-13T14:01:22.712Z,101176.59
2024-02-13T14:03:49.648Z,101177.53
2024-02-13T14:06:16.656Z,101179.44
2024-02-13T14:08:43.408Z,101183.72
2024-02-13T14:11:11.185Z,101188.00
2024-02-13T14:13:37.834Z,101183.47
2024-02-13T14:16:04.803Z,101186.34
2024-02-13T14:18:31.928Z,101190.19
2024-02-13T14:20:58.870Z,101187.00
2024-02-13T14:23:25.561Z,101183.09
2024-02-13T14:25:52.284Z,101185.84
2024-02-13T14:28:19.499Z,101184.28
2024-02-13T14:30:47.307Z,101183.91
2024-02-13T14:33:14.542Z,101196.28
2024-02-13T14:35:43.332Z,101187.91
2024-02-13T14:38:09.944Z,101200.84
2024-02-13T14:40:40.732Z,101197.47
2024-02-13T14:43:08.636Z,101200.34
2024-02-13T14:45:40.061Z,101192.78
2024-02-13T14:48:10.461Z,101200.84
2024-02-13T14:50:39.484Z,101195.31
2024-02-13T14:53:07.981Z,101201.03
2024-02-13T14:55:35.101Z,101198.63
2024-02-13T15:00:32.379Z,101205.97
2024-02-13T15:03:01.153Z,101218.06
2024-02-13T15:05:28.215Z,101214.38
2024-02-13T15:07:55.207Z,101213.53
2024-02-13T15:10:21.779Z,101216.44
2024-02-13T15:12:48.488Z,101220.50
2024-02-13T15:15:18.631Z,101217.50
2024-02-13T15:17:47.132Z,101219.31
2024-02-13T15:20:15.811Z,101220.38
2024-02-13T15:22:42.866Z,101221.56
2024-02-13T15:25:10.287Z,101215.97
2024-02-13T15:27:39.328Z,101221.19
2024-02-13T15:30:09.418Z,101217.94
2024-02-13T15:32:36.055Z,101225.34
2024-02-13T15:35:06.505Z,101218.81
2024-02-13T15:37:51.527Z,101228.28
2024-02-13T15:40:37.064Z,101234.66
2024-02-13T15:43:29.936Z,101234.19
2024-02-13T15:46:14.662Z,101230.53
2024-02-13T15:48:43.665Z,101241.56
2024-02-13T15:51:10.541Z,101233.59
2024-02-13T15:53:38.472Z,101241.16
2024-02-13T15:56:06.989Z,101238.03
2024-02-13T15:58:33.485Z,101244.63
2024-02-13T16:01:00.728Z,101235.00
2024-02-13T16:03:27.801Z,101234.88
2024-02-13T16:05:56.258Z,101236.78
2024-02-13T16:08:25.300Z,101238.69
2024-02-13T16:10:52.502Z,101244.81
2024-02-13T16:13:20.093Z,101245.75
2024-02-13T16:15:47.871Z,101252.84
2024-02-13T16:18:14.719Z,101241.72
2024-02-13T16:20:41.634Z,101248.31
2024-02-13T16:23:08.349Z,101259.91
2024-02-13T16:25:35.919Z,101256.63
2024-02-13T16:28:06.244Z,101256.47
2024-02-13T16:30:34.584Z,101256.34
2024-02-13T16:33:02.271Z,101270.50
2024-02-13T16:35:29.246Z,101269.38
2024-02-13T16:37:55.917Z,101277.28
2024-02-13T16:40:22.922Z,101278.03
2024-02-13T16:42:56.161Z,101270.84
2024-02-13T16:45:25.300Z,101271.41
2024-02-13T16:47:53.342Z,101269.69
2024-02-13T16:50:20.183Z,101268.88
2024-02-13T16:52:47.583Z,101284.44
2024-02-13T16:55:14.888Z,101281.91
2024-02-13T16:57:42.326Z,101281.72
2024-02-13T17:00:11.735Z,101281.69
2024-02-13T17:02:40.186Z,101284.69
2024-02-13T17:05:12.451Z,101284.31
2024-02-13T17:07:43.229Z,101286.47
2024-02-13T17:10:18.961Z,101283.66
2024-02-13T17:12:45.501Z,101281.78
2024-02-13T17:15:14.057Z,101282.91
2024-02-13T17:17:42.223Z,101286.66
2024-02-13T17:20:12.850Z,101277.59
2024-02-13T17:22:42.901Z,101275.75
2024-02-13T17:25:11.133Z,101277.50
2024-02-13T17:27:42.474Z,101294.97
2024-02-13T17:30:13.850Z,101289.03
2024-02-13T17:32:43.056Z,101291.53
2024-02-13T17:35:10.098Z,101291.72
2024-02-13T17:37:37.287Z,101296.09
2024-02-13T17:40:05.421Z,101290.50
2024-02-13T17:42:34.226Z,101300.22
2024-02-13T17:45:00.827Z,101287.00
2024-02-13T17:47:27.419Z,101291.97
2024-02-13T17:49:54.417Z,101291.97
2024-02-13T17:52:21.009Z,101289.84
2024-02-13T17:54:47.557Z,101288.53
2024-02-13T17:57:14.081Z,101299.22
2024-02-13T17:59:40.602Z,101300.03
2024-02-13T18:02:08.634Z,101298.59
2024-02-13T18:04:36.275Z,101299.22
2024-02-13T18:07:03.114Z,101296.56
2024-02-13T18:09:29.635Z,101296.47
2024-02-13T18:11:59.788Z,101288.53
2024-02-13T18:14:28.476Z,101300.38
2024-02-13T18:16:55.172Z,101285.09
2024-02-13T18:19:22.308Z,101291.09
2024-02-13T18:21:52.136Z,101282.34
2024-02-13T18:24:18.929Z,101287.66
2024-02-13T18:26:46.883Z,101285.97
2024-02-13T18:29:13.539Z,101287.59
2024-02-13T18:31:40.152Z,101283.63
2024-02-13T18:34:06.923Z,101284.88
2024-02-13T18:36:33.610Z,101287.00
2024-02-13T18:39:00.252Z,101287.06
2024-02-13T18:41:27.215Z,101293.09
2024-02-13T18:43:53.783Z,101289.94
2024-02-13T18:46:20.591Z,101277.38
2024-02-13T18:48:47.516Z,101277.81
2024-02-13T18:51:17.576Z,101279.88
2024-02-13T18:53:44.145Z,101284.78
2024-02-13T18:56:10.649Z,101293.63
2024-02-13T18:58:39.641Z,101279.50
2024-02-13T19:01:06.382Z,101291.28
2024-02-13T19:03:32.959Z,101290.19
2024-02-13T19:06:04.594Z,101286.94
2024-02-13T19:08:32.637Z,101301.91
2024-02-13T19:10:59.715Z,101285.75
2024-02-13T19:13:29.671Z,101291.09
2024-02-13T19:15:56.199Z,101298.34
2024-02-13T19:18:22.842Z,101299.22
2024-02-13T19:20:52.919Z,101289.41
2024-02-13T19:23:22.826Z,101300.41
2024-02-13T19:25:49.720Z,101290.25
2024-02-13T19:28:17.925Z,101296.72
2024-02-13T19:30:46.867Z,101283.53
2024-02-13T19:33:14.511Z,101292.97
2024-02-13T19:35:41.830Z,101296.53
2024-02-13T19:38:10.846Z,101292.38
2024-02-13T19:40:39.411Z,101292.66
2024-02-13T19:43:05.898Z,101298.81
2024-02-13T19:45:32.560Z,101295.78
2024-02-13T19:47:59.142Z,101292.03
2024-02-13T19:50:25.669Z,101294.50
2024-02-13T19:52:52.177Z,101289.53
2024-02-13T19:55:20.008Z,101294.25
2024-02-13T19:57:46.554Z,101290.75
2024-02-13T20:00:14.082Z,101295.78
2024-02-13T20:02:40.682Z,101290.31
2024-02-13T20:05:07.462Z,101293.69
2024-02-13T20:07:38.490Z,101285.81
2024-02-13T20:10:06.812Z,101289.47
2024-02-13T20:12:33.458Z,101275.13
2024-02-13T20:15:00.467Z,101280.16
2024-02-13T20:17:27.628Z,101282.78
2024-02-13T20:19:54.218Z,101277.75
2024-02-13T20:22:20.732Z,101279.34
2024-02-13T20:24:48.578Z,101274.72
2024-02-13T20:27:15.153Z,101285.47
2024-02-13T20:29:43.752Z,101279.97
2024-02-13T20:32:10.632Z,101286.63
2024-02-13T20:34:38.352Z,101300.91
2024-02-13T20:37:05.122Z,101286.09
2024-02-13T20:39:31.749Z,101295.66
2024-02-13T20:41:59.897Z,101290.25
2024-02-13T20:44:27.977Z,101284.78
2024-02-13T20:46:55.072Z,101293.81
2024-02-13T20:49:23.856Z,101304.00
2024-02-13T20:51:50.407Z,101305.81
2024-02-13T20:54:17.129Z,101299.34
2024-02-13T20:56:49.845Z,101301.91
2024-02-13T20:59:18.665Z,101291.22
2024-02-13T21:01:48.588Z,101290.88
2024-02-13T21:04:15.236Z,101295.03
2024-02-13T21:06:44.773Z,101281.19
2024-02-13T21:09:13.154Z,101291.28
2024-02-13T21:11:40.853Z,101292.34
2024-02-13T21:14:07.771Z,101297.47
2024-02-13T21:16:34.499Z,101293.06
2024-02-13T21:19:02.078Z,101287.91
2024-02-13T21:21:47.494Z,101290.75
2024-02-13T21:24:14.305Z,101293.25
2024-02-13T21:26:41.298Z,101290.25
2024-02-13T21:29:08.539Z,101280.91
2024-02-13T21:31:35.607Z,101282.09
2024-02-13T21:34:06.862Z,101293.25
2024-02-13T21:36:35.876Z,101285.47
2024-02-13T21:39:08.451Z,101287.38
2024-02-13T21:41:36.129Z,101288.81
2024-02-13T21:44:12.875Z,101293.97
2024-02-13T21:46:39.405Z,101294.63
2024-02-13T21:49:07.766Z,101290.91
2024-02-13T21:51:34.413Z,101289.75
2024-02-13T21:54:01.872Z,101289.84
2024-02-13T21:56:28.611Z,101303.50
2024-02-13T21:58:56.274Z,101293.31
2024-02-13T22:01:22.854Z,101296.38
2024-02-13T22:03:49.734Z,101291.31
2024-02-13T22:06:16.291Z,101296.91
2024-02-13T22:08:44.160Z,101293.97
2024-02-13T22:11:10.824Z,101295.31
2024-02-13T22:13:37.484Z,101294.75
2024-02-13T22:16:05.204Z,101293.38
2024-02-13T22:18:31.831Z,101285.59
2024-02-13T22:20:58.757Z,101296.91
2024-02-13T22:23:25.842Z,101285.66
2024-02-13T22:25:52.756Z,101294.25
2024-02-13T22:28:19.238Z,101292.88
2024-02-13T22:30:47.157Z,101301.75
2024-02-13T22:33:14.238Z,101294.19
2024-02-13T22:35:41.868Z,101295.94
2024-02-13T22:38:08.687Z,101291.38
2024-02-13T22:40:35.279Z,101294.19
2024-02-13T22:43:03.206Z,101293.06
2024-02-13T22:45:29.807Z,101300.75
2024-02-13T22:48:02.059Z,101294.94
2024-02-13T22:50:29.726Z,101295.06
2024-02-13T22:52:59.968Z,101305.53
2024-02-13T22:55:30.497Z,101309.06
2024-02-13T22:57:58.460Z,101298.28
2024-02-13T23:00:43.996Z,101297.75
2024-02-13T23:03:10.959Z,101293.25
2024-02-13T23:05:38.776Z,101286.38
2024-02-13T23:08:06.949Z,101281.03
2024-02-13T23:10:33.951Z,101299.03
2024-02-13T23:13:00.527Z,101291.09
2024-02-13T23:15:27.139Z,101291.88
2024-02-13T23:17:53.844Z,101296.13
2024-02-13T23:20:22.560Z,101292.63
2024-02-13T23:22:53.077Z,101289.16
2024-02-13T23:25:21.137Z,101295.56
2024-02-13T23:27:48.455Z,101300.59
2024-02-13T23:30:15.758Z,101295.31
2024-02-13T23:32:42.939Z,101283.78
2024-02-13T23:35:09.864Z,101283.84
2024-02-13T23:37:36.394Z,101289.88
2024-02-13T23:40:12.881Z,101290.19
2024-02-13T23:42:39.973Z,101285.09
2024-02-13T23:45:08.120Z,101288.88
2024-02-13T23:47:34.743Z,101286.91
2024-02-13T23:50:01.757Z,101278.75
2024-02-13T23:52:28.417Z,101278.72
2024-02-13T23:54:55.205Z,101286.16
2024-02-13T23:57:21.795Z,101280.28
2024-02-13T23:59:48.533Z,101278.28
